Presque Isle, Michigan
Current Conditions -  °F | °C
As of 11:54 PM on Monday 22 Dec 2014 (Local Time) from KAPN Reporting Station
Haze Haze  
Wind Chill: 27°   Ceiling: 1700
Heat Index: 34°   Visibility: 6mi
Dew Point: 30°   Wind: 8mph
Humidity: 85%   Direction: 110°ESE
Pressure: 29.95"   Gusts: NA
Location:  45.3°N, 83.48°W
Report Text: KAPN 230454Z AUTO 11007KT 6SM BR OVC017 01/M01 A2995 RMK AO2 SLP150 T00111011 400171022
Loading
Personal Weather Stations






























Interactive Weather Map New forecast layout! Learn more

10-Day Weather Forecast

Advertisements
Track Severe Weather on mobile